Time;durP1;ratioP1;P1;durP2;ratioP2;P2;SDS_P1;SDS_P2;PMS_P1;PMS_P2;Temp;Humidity;BMP_temperature;BMP_pressure;BME280_temperature;BME280_humidity;BME280_pressure;Samples;Min_cycle;Max_cycle;Signal;HPM_P1;HPM_P2
2022/09/04 00:02:10;;;;;;;2.03;1.80;;;17.30;59.00;;;;;;5031270;28;20013;-59
2022/09/04 00:04:53;;;;;;;1.85;1.52;;;17.30;59.10;;;;;;5029428;28;20029;-60
2022/09/04 00:07:25;;;;;;;1.92;1.73;;;17.20;59.10;;;;;;5036397;28;20029;-59
2022/09/04 00:09:57;;;;;;;1.73;1.60;;;17.20;59.00;;;;;;5033843;28;20022;-59
2022/09/04 00:12:30;;;;;;;2.15;1.80;;;17.30;59.20;;;;;;5030724;28;20024;-59
2022/09/04 00:15:06;;;;;;;1.70;1.60;;;17.30;59.30;;;;;;5030835;28;20026;-59
2022/09/04 00:17:43;;;;;;;1.50;1.40;;;17.20;59.20;;;;;;5030567;28;20380;-59
2022/09/04 00:20:44;;;;;;;1.90;1.73;;;17.20;59.30;;;;;;5027337;28;20025;-59
2022/09/04 00:23:20;;;;;;;1.95;1.75;;;17.20;59.40;;;;;;5001087;28;20045;-59
2022/09/04 00:25:46;;;;;;;2.25;2.00;;;17.20;59.30;;;;;;5012166;28;20028;-59
2022/09/04 00:28:18;;;;;;;2.25;1.63;;;17.20;59.30;;;;;;5030766;28;20021;-59
2022/09/04 00:30:59;;;;;;;1.98;1.80;;;17.20;59.40;;;;;;5028768;28;20028;-59
2022/09/04 00:33:54;;;;;;;3.75;2.10;;;17.20;59.40;;;;;;5031219;28;20103;-59
2022/09/04 00:36:23;;;;;;;2.22;1.98;;;17.10;59.60;;;;;;5009873;28;20108;-59
2022/09/04 00:38:55;;;;;;;2.08;1.60;;;17.10;59.80;;;;;;5034507;28;20032;-59
2022/09/04 00:41:33;;;;;;;1.50;1.40;;;17.10;59.90;;;;;;5031553;28;20097;-59
2022/09/04 00:44:22;;;;;;;1.88;1.77;;;17.10;60.00;;;;;;5031057;28;20022;-59
2022/09/04 00:47:13;;;;;;;1.95;1.70;;;17.10;59.90;;;;;;4982624;28;20037;-59
2022/09/04 00:49:44;;;;;;;1.60;1.50;;;17.10;59.80;;;;;;5030738;28;20053;-59
2022/09/04 00:52:19;;;;;;;2.58;1.92;;;17.10;59.90;;;;;;5030579;28;20018;-59
2022/09/04 00:55:09;;;;;;;2.22;1.60;;;17.10;60.00;;;;;;5030818;28;20025;-59
2022/09/04 00:58:07;;;;;;;2.20;1.50;;;17.10;60.00;;;;;;5026873;28;20037;-59
2022/09/04 01:00:34;;;;;;;1.75;1.50;;;17.10;60.20;;;;;;4975652;28;20120;-59
2022/09/04 01:03:16;;;;;;;2.45;1.90;;;17.10;60.10;;;;;;5029792;28;20518;-59
2022/09/04 01:06:02;;;;;;;1.83;1.73;;;17.10;60.00;;;;;;5030499;28;20088;-59
2022/09/04 01:08:40;;;;;;;1.65;1.55;;;17.10;60.00;;;;;;5028628;28;20026;-59
2022/09/04 01:11:34;;;;;;;1.70;1.60;;;17.00;60.90;;;;;;5029980;28;20029;-59
2022/09/04 01:13:59;;;;;;;1.77;1.67;;;17.10;60.20;;;;;;5030031;28;20030;-59
2022/09/04 01:16:38;;;;;;;1.75;1.45;;;17.00;60.20;;;;;;5031139;28;20384;-59
2022/09/04 01:19:22;;;;;;;1.73;1.42;;;17.10;60.20;;;;;;5031260;28;20022;-59
2022/09/04 01:22:25;;;;;;;2.15;1.70;;;17.10;60.30;;;;;;5032396;28;20029;-59
2022/09/04 01:25:07;;;;;;;1.85;1.67;;;17.00;60.20;;;;;;5033807;28;20022;-59
2022/09/04 01:27:48;;;;;;;1.92;1.73;;;17.00;60.20;;;;;;5034532;28;20033;-59
2022/09/04 01:30:19;;;;;;;1.53;1.43;;;17.00;61.10;;;;;;5026677;28;20026;-59
2022/09/04 01:33:19;;;;;;;2.15;1.85;;;17.00;60.70;;;;;;5033449;28;20439;-59
2022/09/04 01:35:54;;;;;;;1.60;1.50;;;17.00;60.80;;;;;;4983968;28;20045;-59
2022/09/04 01:38:44;;;;;;;1.63;1.42;;;17.00;60.70;;;;;;5032000;28;20437;-59
2022/09/04 01:41:24;;;;;;;1.90;1.63;;;17.00;60.90;;;;;;5032024;28;20512;-59
2022/09/04 01:43:50;;;;;;;2.83;1.90;;;17.00;60.90;;;;;;5033094;28;20024;-59
2022/09/04 01:46:40;;;;;;;1.67;1.58;;;17.00;60.90;;;;;;5034803;28;20083;-59
2022/09/04 01:49:33;;;;;;;3.30;1.60;;;17.00;60.90;;;;;;5033913;28;20049;-59
2022/09/04 01:52:28;;;;;;;2.15;1.95;;;17.00;61.00;;;;;;5033804;28;20041;-59
2022/09/04 01:55:12;;;;;;;1.63;1.52;;;17.00;61.00;;;;;;5027261;28;20374;-59
2022/09/04 01:58:22;;;;;;;1.88;1.77;;;17.00;61.30;;;;;;5033099;28;20137;-59
2022/09/04 02:01:03;;;;;;;1.67;1.58;;;16.90;61.40;;;;;;4950981;28;20031;-59
2022/09/04 02:03:38;;;;;;;;;;;16.90;61.30;;;;;;5029202;28;20392;-59
2022/09/04 02:06:20;;;;;;;1.52;1.42;;;16.90;62.00;;;;;;5034335;28;20399;-59
2022/09/04 02:08:58;;;;;;;1.75;1.40;;;16.90;61.30;;;;;;5033221;28;20018;-59
2022/09/04 02:11:28;;;;;;;1.95;1.52;;;16.90;61.30;;;;;;5029548;28;20397;-59
2022/09/04 02:14:13;;;;;;;1.75;1.65;;;16.90;61.40;;;;;;5034227;28;20120;-59
2022/09/04 02:17:01;;;;;;;2.05;1.70;;;16.90;61.30;;;;;;5030660;28;20037;-59
2022/09/04 02:19:53;;;;;;;1.70;1.55;;;16.90;61.40;;;;;;5033650;28;20029;-59
2022/09/04 02:22:43;;;;;;;2.10;1.38;;;16.80;61.20;;;;;;4988470;28;20116;-59
2022/09/04 02:25:15;;;;;;;1.90;1.50;;;16.80;61.30;;;;;;4994081;28;20447;-59
2022/09/04 02:27:54;;;;;;;1.63;1.52;;;16.80;61.50;;;;;;5032085;28;20033;-59
2022/09/04 02:30:21;;;;;;;1.52;1.42;;;16.80;61.70;;;;;;5030311;28;20392;-59
2022/09/04 02:33:34;;;;;;;2.00;1.80;;;16.70;61.70;;;;;;5030438;28;20414;-59
2022/09/04 02:36:17;;;;;;;2.10;1.80;;;16.70;61.80;;;;;;4961173;28;20047;-59
2022/09/04 02:39:10;;;;;;;1.95;1.85;;;16.70;61.90;;;;;;5033368;28;20017;-59
2022/09/04 02:41:58;;;;;;;2.08;1.77;;;16.70;62.10;;;;;;5028182;28;20385;-59
2022/09/04 02:44:47;;;;;;;2.58;1.83;;;16.60;62.00;;;;;;5033174;28;20056;-59
2022/09/04 02:47:19;;;;;;;1.60;1.50;;;16.60;62.20;;;;;;5032277;28;20033;-59
2022/09/04 02:50:15;;;;;;;1.92;1.60;;;16.60;62.20;;;;;;5031840;28;20108;-59
2022/09/04 02:53:03;;;;;;;1.58;1.48;;;16.50;62.50;;;;;;5031141;28;20092;-58
2022/09/04 02:55:47;;;;;;;2.10;1.90;;;16.50;62.40;;;;;;5033468;28;20496;-59
2022/09/04 02:58:16;;;;;;;3.22;1.83;;;16.50;62.40;;;;;;5027955;28;20439;-59
2022/09/04 03:01:26;;;;;;;2.05;1.80;;;16.40;62.40;;;;;;5029944;28;20447;-59
2022/09/04 03:04:16;;;;;;;2.22;1.85;;;16.40;62.40;;;;;;4971675;28;20035;-59
2022/09/04 03:06:48;;;;;;;1.67;1.58;;;16.40;62.50;;;;;;5031496;28;20112;-59
2022/09/04 03:09:24;;;;;;;1.77;1.67;;;16.40;62.60;;;;;;5033222;28;20103;-59
2022/09/04 03:12:09;;;;;;;2.78;2.15;;;16.30;62.70;;;;;;5031838;28;20061;-59
2022/09/04 03:14:43;;;;;;;2.25;1.80;;;16.30;62.70;;;;;;5033066;28;20051;-59
2022/09/04 03:17:37;;;;;;;2.25;2.05;;;16.30;62.90;;;;;;5032195;28;20033;-59
2022/09/04 03:20:14;;;;;;;2.97;2.28;;;16.30;63.00;;;;;;5031861;28;20037;-59
2022/09/04 03:22:51;;;;;;;3.42;2.25;;;16.30;62.90;;;;;;5031765;28;20033;-59
2022/09/04 03:25:22;;;;;;;2.22;2.00;;;16.30;63.20;;;;;;5025142;28;20075;-59
2022/09/04 03:27:48;;;;;;;2.20;1.95;;;16.30;63.60;;;;;;5031660;28;20056;-59
2022/09/04 03:30:14;;;;;;;2.30;2.10;;;16.20;63.50;;;;;;5032241;28;20034;-58
2022/09/04 03:32:46;;;;;;;4.35;2.30;;;16.20;63.70;;;;;;5030434;28;20076;-59
2022/09/04 03:35:33;;;;;;;5.07;2.50;;;16.20;63.80;;;;;;5023788;28;20053;-59
2022/09/04 03:38:04;;;;;;;2.67;2.10;;;16.20;63.90;;;;;;5030268;28;20041;-59
2022/09/04 03:40:37;;;;;;;2.80;2.40;;;16.20;64.20;;;;;;5032304;28;20492;-59
2022/09/04 03:43:40;;;;;;;3.55;2.50;;;16.10;64.10;;;;;;5031260;28;20037;-59
2022/09/04 03:46:17;;;;;;;2.40;2.17;;;16.10;64.10;;;;;;5031066;28;20037;-59
2022/09/04 03:48:56;;;;;;;3.17;2.33;;;16.20;64.50;;;;;;5031550;28;20025;-59
2022/09/04 03:51:49;;;;;;;2.50;2.30;;;16.20;65.10;;;;;;5025270;28;20072;-59
2022/09/04 03:54:22;;;;;;;4.07;2.33;;;16.20;64.40;;;;;;5030885;28;20101;-59
2022/09/04 03:56:51;;;;;;;4.22;2.42;;;16.20;64.30;;;;;;5030273;28;20366;-59
2022/09/04 03:59:28;;;;;;;2.80;2.17;;;16.20;64.40;;;;;;5032025;28;20381;-61
2022/09/04 04:02:22;;;;;;;2.83;2.38;;;16.20;64.40;;;;;;5031157;28;20042;-62
2022/09/04 04:05:13;;;;;;;1.90;1.80;;;16.30;64.40;;;;;;5020827;28;20437;-62
2022/09/04 04:07:54;;;;;;;3.63;2.30;;;16.30;64.40;;;;;;5026510;28;20029;-61
2022/09/04 04:10:32;;;;;;;2.90;2.10;;;16.30;64.50;;;;;;5030280;28;20022;-61
2022/09/04 04:13:16;;;;;;;2.15;1.90;;;16.40;64.40;;;;;;5032001;28;20071;-61
2022/09/04 04:16:01;;;;;;;2.35;2.15;;;16.40;64.40;;;;;;5027810;28;20029;-61
2022/09/04 04:18:27;;;;;;;3.08;2.00;;;16.50;64.10;;;;;;5029794;28;20033;-61
2022/09/04 04:21:07;;;;;;;2.45;2.00;;;16.50;64.20;;;;;;5031715;28;20525;-61
2022/09/04 04:23:55;;;;;;;3.90;2.33;;;16.50;64.20;;;;;;5028957;28;20044;-61
2022/09/04 04:26:29;;;;;;;3.10;2.33;;;16.60;64.00;;;;;;5028124;28;20072;-61
2022/09/04 04:29:09;;;;;;;1.90;1.73;;;16.60;64.00;;;;;;5029286;28;20057;-61
2022/09/04 04:32:09;;;;;;;2.42;1.95;;;16.60;63.80;;;;;;5031045;28;20041;-61
2022/09/04 04:35:11;;;;;;;2.38;1.80;;;16.60;63.80;;;;;;5028573;28;20060;-61
2022/09/04 04:38:02;;;;;;;1.60;1.50;;;16.60;63.80;;;;;;4998292;28;20045;-59
2022/09/04 04:40:40;;;;;;;2.28;2.08;;;16.70;63.60;;;;;;5024842;28;20026;-61
2022/09/04 04:43:23;;;;;;;2.45;1.98;;;16.70;63.60;;;;;;5024228;28;20030;-60
2022/09/04 04:46:01;;;;;;;1.88;1.77;;;16.70;63.60;;;;;;5029798;28;20039;-60
2022/09/04 04:48:38;;;;;;;3.60;2.67;;;16.80;63.60;;;;;;5024705;28;20441;-60
2022/09/04 04:51:16;;;;;;;1.50;1.40;;;16.90;63.50;;;;;;5026505;28;20112;-61
2022/09/04 04:54:22;;;;;;;1.55;1.45;;;17.10;63.50;;;;;;5029722;28;20029;-61
2022/09/04 04:57:03;;;;;;;2.00;1.80;;;17.20;63.00;;;;;;5024037;28;20033;-61
2022/09/04 05:00:02;;;;;;;;;;;17.30;62.70;;;;;;5028328;28;20113;-58
2022/09/04 05:02:29;;;;;;;1.50;1.40;;;17.40;62.50;;;;;;5028480;28;19989;-59
2022/09/04 05:05:12;;;;;;;2.00;1.35;;;17.60;63.00;;;;;;5030869;28;20072;-58
2022/09/04 05:07:52;;;;;;;1.55;1.45;;;18.00;62.20;;;;;;5030087;28;20467;-59
2022/09/04 05:10:33;;;;;;;2.15;1.58;;;18.20;61.50;;;;;;5029463;28;20101;-59
2022/09/04 05:12:58;;;;;;;;;;;18.40;60.80;;;;;;5026423;28;20044;-58
2022/09/04 05:15:37;;;;;;;1.40;1.30;;;18.40;60.30;;;;;;5031031;28;19913;-59
2022/09/04 05:18:12;;;;;;;1.42;1.33;;;18.30;60.50;;;;;;5028680;28;20503;-59
2022/09/04 05:20:44;;;;;;;1.77;1.67;;;18.30;60.60;;;;;;5031160;28;20021;-59
2022/09/04 05:23:33;;;;;;;1.52;1.42;;;18.30;60.50;;;;;;5030178;28;20029;-59
2022/09/04 05:26:30;;;;;;;1.70;1.60;;;18.30;60.50;;;;;;5030765;28;20061;-58
2022/09/04 05:29:22;;;;;;;1.50;1.40;;;18.40;60.30;;;;;;5027098;28;20033;-59
2022/09/04 05:32:16;;;;;;;1.52;1.42;;;18.50;60.20;;;;;;5027590;28;20393;-59
2022/09/04 05:35:01;;;;;;;1.88;1.50;;;18.50;59.90;;;;;;5028413;28;20489;-59
2022/09/04 05:37:35;;;;;;;1.85;1.52;;;18.70;59.90;;;;;;5029780;28;20057;-59
2022/09/04 05:40:04;;;;;;;1.98;1.77;;;18.80;59.70;;;;;;5031162;28;20485;-59
2022/09/04 05:42:46;;;;;;;1.98;1.25;;;18.80;59.50;;;;;;5029960;28;20028;-59
2022/09/04 05:45:24;;;;;;;1.67;1.58;;;19.00;59.30;;;;;;5031019;28;20464;-59
2022/09/04 05:47:59;;;;;;;2.22;1.77;;;19.10;58.90;;;;;;5026676;28;20532;-59
2022/09/04 05:50:40;;;;;;;1.80;1.70;;;19.40;58.30;;;;;;5029575;28;20100;-59
2022/09/04 05:53:23;;;;;;;1.70;1.50;;;19.50;58.00;;;;;;5025619;28;20022;-60
2022/09/04 05:56:18;;;;;;;1.25;1.25;;;19.50;57.90;;;;;;5029939;28;20029;-59
2022/09/04 05:58:49;;;;;;;1.70;1.50;;;19.40;57.80;;;;;;5024354;28;20038;-59
2022/09/04 06:01:56;;;;;;;1.63;1.30;;;19.30;57.90;;;;;;5030859;28;20025;-57
2022/09/04 06:04:27;;;;;;;2.20;1.40;;;19.20;57.90;;;;;;4912120;29;20096;-59
2022/09/04 06:07:05;;;;;;;;;;;19.20;58.20;;;;;;4918013;29;20047;-60
2022/09/04 06:09:50;;;;;;;1.50;1.40;;;19.10;58.10;;;;;;4975154;28;19916;-60
2022/09/04 06:12:18;;;;;;;1.17;1.17;;;19.00;58.40;;;;;;5035063;28;20455;-60
2022/09/04 06:15:14;;;;;;;1.42;1.33;;;19.00;58.60;;;;;;5033893;28;20030;-60
2022/09/04 06:17:46;;;;;;;1.20;1.13;;;19.00;58.60;;;;;;5033560;28;20025;-60
2022/09/04 06:20:20;;;;;;;2.03;1.65;;;19.00;58.80;;;;;;5034048;28;20027;-60
2022/09/04 06:22:49;;;;;;;1.23;1.10;;;19.00;58.80;;;;;;5032981;28;20310;-60
2022/09/04 06:25:39;;;;;;;1.20;1.10;;;19.00;58.70;;;;;;5033063;28;20037;-60
2022/09/04 06:28:26;;;;;;;1.38;1.27;;;19.00;58.70;;;;;;5032167;28;20033;-60
2022/09/04 06:31:03;;;;;;;1.30;1.20;;;19.00;58.80;;;;;;5026989;28;20017;-60
2022/09/04 06:34:02;;;;;;;1.58;1.48;;;19.00;58.80;;;;;;5028013;28;20556;-60
2022/09/04 06:36:41;;;;;;;1.10;1.00;;;19.10;58.70;;;;;;5033063;28;20037;-60
2022/09/04 06:39:32;;;;;;;1.08;1.08;;;19.10;58.70;;;;;;5033001;28;20033;-60
2022/09/04 06:42:08;;;;;;;0.75;0.75;;;19.10;58.50;;;;;;5030976;28;20091;-60
2022/09/04 06:45:00;;;;;;;1.42;1.10;;;19.20;59.00;;;;;;5032981;28;20385;-60
2022/09/04 06:48:07;;;;;;;1.38;1.23;;;19.20;58.50;;;;;;5032170;28;20033;-60
2022/09/04 06:50:57;;;;;;;1.23;1.15;;;19.20;58.50;;;;;;4912845;29;20028;-60
2022/09/04 06:53:35;;;;;;;1.27;1.27;;;19.20;58.50;;;;;;5027358;28;20033;-60
2022/09/04 06:56:22;;;;;;;1.35;1.25;;;19.20;58.50;;;;;;5033620;28;20069;-60
2022/09/04 06:58:57;;;;;;;1.17;1.05;;;19.30;58.30;;;;;;5032092;28;20489;-60
2022/09/04 07:01:45;;;;;;;1.95;1.38;;;19.40;58.30;;;;;;5030911;28;20029;-60
2022/09/04 07:04:25;;;;;;;1.20;1.10;;;19.40;58.20;;;;;;5033313;28;20045;-59
2022/09/04 07:07:07;;;;;;;1.45;1.27;;;19.40;58.00;;;;;;5029607;28;20068;-59
2022/09/04 07:09:40;;;;;;;;;;;19.50;57.90;;;;;;5032754;28;20029;-60
2022/09/04 07:12:20;;;;;;;2.05;1.13;;;19.50;57.70;;;;;;5032632;28;19917;-60
2022/09/04 07:14:52;;;;;;;0.90;0.90;;;19.50;57.80;;;;;;5032284;28;20022;-60
2022/09/04 07:17:36;;;;;;;0.85;0.80;;;19.60;57.80;;;;;;5028696;28;20080;-60
2022/09/04 07:20:14;;;;;;;1.60;1.50;;;19.60;57.80;;;;;;5013662;28;20451;-60
2022/09/04 07:22:48;;;;;;;1.30;1.20;;;19.60;57.60;;;;;;5031914;28;20034;-60
2022/09/04 07:25:25;;;;;;;1.70;1.60;;;19.70;57.50;;;;;;5032959;28;20515;-60
2022/09/04 07:28:18;;;;;;;1.50;1.33;;;19.70;57.50;;;;;;5031269;28;20112;-60
2022/09/04 07:30:58;;;;;;;2.25;1.20;;;19.70;57.40;;;;;;5025942;28;20431;-60
2022/09/04 07:33:34;;;;;;;0.95;0.90;;;19.70;57.40;;;;;;5027839;28;20104;-60
2022/09/04 07:36:31;;;;;;;1.30;1.20;;;19.70;57.40;;;;;;5032254;28;20025;-60
2022/09/04 07:39:11;;;;;;;1.40;1.30;;;19.70;57.30;;;;;;5026477;28;20393;-60
2022/09/04 07:41:54;;;;;;;1.27;1.17;;;19.80;57.40;;;;;;5032619;28;20017;-60
2022/09/04 07:44:28;;;;;;;3.15;1.75;;;19.80;57.30;;;;;;5031915;28;20029;-60
2022/09/04 07:47:18;;;;;;;1.50;1.40;;;19.80;57.20;;;;;;5031922;28;20021;-60
2022/09/04 07:50:02;;;;;;;1.20;1.10;;;19.80;57.10;;;;;;5029711;28;20033;-60
2022/09/04 07:52:52;;;;;;;2.10;1.42;;;19.80;57.20;;;;;;5030695;28;20043;-60
2022/09/04 07:55:32;;;;;;;1.50;1.40;;;19.80;57.10;;;;;;5028779;28;20506;-60
2022/09/04 07:58:20;;;;;;;2.05;1.60;;;19.70;57.20;;;;;;5030476;28;20025;-60
2022/09/04 08:01:13;;;;;;;1.20;1.10;;;19.70;57.20;;;;;;5030487;28;20040;-60
2022/09/04 08:04:02;;;;;;;2.30;1.80;;;19.70;57.20;;;;;;5030607;28;20362;-61
2022/09/04 08:06:44;;;;;;;2.25;1.60;;;19.70;57.30;;;;;;5031078;28;20064;-61
2022/09/04 08:09:16;;;;;;;1.80;1.60;;;19.70;57.50;;;;;;5029530;28;20029;-61
2022/09/04 08:11:44;;;;;;;3.42;1.70;;;19.70;57.60;;;;;;5035137;28;20021;-61
2022/09/04 08:14:12;;;;;;;3.22;1.70;;;19.70;57.70;;;;;;5031641;28;20029;-61
2022/09/04 08:17:24;;;;;;;1.65;1.55;;;19.70;57.80;;;;;;5031560;28;20037;-61
2022/09/04 08:20:21;;;;;;;1.75;1.50;;;19.70;57.70;;;;;;5028756;28;20022;-61
2022/09/04 08:22:53;;;;;;;1.75;1.48;;;19.60;57.70;;;;;;5023182;28;20128;-61
2022/09/04 08:25:29;;;;;;;1.40;1.30;;;19.60;57.80;;;;;;5031370;28;20049;-60
2022/09/04 08:28:32;;;;;;;2.22;1.50;;;19.60;57.60;;;;;;5030204;28;20061;-60
2022/09/04 08:31:09;;;;;;;2.53;1.80;;;19.60;57.60;;;;;;5021116;28;20467;-61
2022/09/04 08:33:44;;;;;;;4.45;2.00;;;19.50;57.60;;;;;;5029000;28;20029;-61
2022/09/04 08:36:21;;;;;;;2.58;1.75;;;19.50;57.60;;;;;;5029148;28;20080;-61
2022/09/04 08:38:54;;;;;;;1.55;1.38;;;19.50;57.60;;;;;;5028184;28;20362;-61
2022/09/04 08:41:47;;;;;;;1.83;1.58;;;19.50;57.70;;;;;;5029740;28;20026;-61
2022/09/04 08:44:34;;;;;;;2.08;1.65;;;19.50;57.50;;;;;;5030252;28;20503;-59
2022/09/04 08:47:16;;;;;;;1.63;1.52;;;19.40;57.50;;;;;;5030021;28;20038;-60
2022/09/04 08:50:12;;;;;;;2.00;1.60;;;19.40;57.40;;;;;;5027077;28;20026;-60
2022/09/04 08:52:40;;;;;;;1.55;1.45;;;19.40;57.40;;;;;;5028855;28;20060;-60
2022/09/04 08:55:26;;;;;;;2.13;1.40;;;19.50;57.40;;;;;;5029447;28;20026;-61
2022/09/04 08:58:29;;;;;;;1.83;1.70;;;19.40;57.20;;;;;;5025523;28;20120;-61
2022/09/04 09:01:40;;;;;;;1.92;1.42;;;19.50;57.10;;;;;;5027739;28;20108;-60
2022/09/04 09:04:24;;;;;;;1.65;1.25;;;19.50;57.20;;;;;;5027827;28;20451;-61
2022/09/04 09:07:18;;;;;;;3.17;1.65;;;19.50;57.00;;;;;;5027956;28;20503;-61
2022/09/04 09:09:58;;;;;;;2.83;1.63;;;19.60;56.90;;;;;;5025851;28;20029;-61
2022/09/04 09:12:51;;;;;;;0.90;0.90;;;19.60;56.70;;;;;;5033584;28;20044;-61
2022/09/04 09:15:41;;;;;;;1.20;1.10;;;19.60;56.50;;;;;;5031389;28;20119;-60
2022/09/04 09:18:43;;;;;;;1.08;1.02;;;19.50;56.40;;;;;;5030214;28;20037;-61
2022/09/04 09:21:23;;;;;;;1.60;1.13;;;19.60;56.60;;;;;;5025367;28;20029;-60
2022/09/04 09:24:21;;;;;;;1.77;1.40;;;19.60;56.60;;;;;;5027496;28;20403;-60
2022/09/04 09:26:50;;;;;;;2.10;1.30;;;19.70;56.40;;;;;;5028141;28;20036;-60
2022/09/04 09:29:53;;;;;;;1.52;1.42;;;19.80;56.10;;;;;;5030376;28;20065;-60
2022/09/04 09:32:56;;;;;;;1.23;1.13;;;19.90;55.80;;;;;;5027692;28;20075;-60
2022/09/04 09:35:37;;;;;;;1.02;0.90;;;20.00;55.40;;;;;;5026772;28;20103;-60
2022/09/04 09:38:24;;;;;;;0.77;0.77;;;20.10;55.20;;;;;;5027933;28;20033;-60
2022/09/04 09:41:12;;;;;;;1.00;1.00;;;20.10;55.10;;;;;;5030800;28;20409;-60
2022/09/04 09:43:47;;;;;;;1.30;1.00;;;20.20;55.00;;;;;;5034204;28;20090;-60
2022/09/04 09:46:58;;;;;;;1.27;1.17;;;20.10;54.70;;;;;;5028969;28;20030;-59
2022/09/04 09:49:57;;;;;;;1.50;1.20;;;20.10;54.60;;;;;;5029354;28;20041;-60
2022/09/04 09:52:47;;;;;;;1.10;1.02;;;20.10;54.60;;;;;;5032447;28;20141;-60
2022/09/04 09:55:49;;;;;;;1.10;1.00;;;20.20;54.50;;;;;;5032761;28;20354;-61
2022/09/04 09:58:20;;;;;;;1.35;1.20;;;20.20;54.60;;;;;;5033164;28;20543;-61
2022/09/04 10:01:18;;;;;;;0.98;0.98;;;20.20;54.60;;;;;;5032475;28;20101;-61
2022/09/04 10:04:05;;;;;;;1.80;1.40;;;20.30;54.50;;;;;;5033402;28;20037;-61
2022/09/04 10:06:34;;;;;;;1.20;1.10;;;20.40;54.40;;;;;;5032133;28;20033;-60
2022/09/04 10:09:23;;;;;;;1.20;1.10;;;20.40;53.90;;;;;;5034978;28;20037;-60
2022/09/04 10:12:17;;;;;;;1.23;1.13;;;20.40;53.50;;;;;;5031337;28;20033;-60
2022/09/04 10:14:46;;;;;;;1.17;1.17;;;20.40;53.50;;;;;;5030734;28;20465;-60
2022/09/04 10:17:29;;;;;;;1.40;1.30;;;20.40;53.50;;;;;;5031957;28;20030;-59
2022/09/04 10:20:19;;;;;;;1.10;1.10;;;20.30;53.30;;;;;;5032279;28;20036;-60
2022/09/04 10:23:06;;;;;;;0.93;0.90;;;20.30;53.10;;;;;;5032716;28;20083;-61
2022/09/04 10:25:44;;;;;;;1.40;1.30;;;20.20;53.10;;;;;;5032438;28;20030;-60
2022/09/04 10:28:43;;;;;;;1.05;1.05;;;20.20;53.10;;;;;;5032368;28;20025;-60
2022/09/04 10:31:56;;;;;;;1.30;1.17;;;20.20;53.00;;;;;;5030988;28;20061;-61
2022/09/04 10:34:39;;;;;;;0.90;0.90;;;20.30;53.00;;;;;;4931555;28;20134;-60
2022/09/04 10:37:39;;;;;;;1.67;1.17;;;20.30;53.10;;;;;;5033729;28;20441;-61
2022/09/04 10:40:37;;;;;;;0.90;0.90;;;20.40;53.30;;;;;;5032167;28;20029;-60
2022/09/04 10:43:29;;;;;;;2.88;1.42;;;20.40;53.30;;;;;;5031800;28;20034;-60
2022/09/04 10:46:08;;;;;;;1.13;1.10;;;20.40;53.10;;;;;;5031439;28;20026;-60
2022/09/04 10:48:59;;;;;;;0.98;0.93;;;20.50;53.10;;;;;;5032170;28;20056;-60
2022/09/04 10:51:33;;;;;;;1.10;1.00;;;20.60;53.20;;;;;;5026607;28;20033;-58
2022/09/04 10:54:17;;;;;;;1.13;1.00;;;20.50;52.90;;;;;;5032690;28;20017;-59
2022/09/04 10:57:03;;;;;;;1.00;0.90;;;20.50;52.40;;;;;;5032028;28;20378;-59
2022/09/04 10:59:51;;;;;;;1.08;1.05;;;20.50;52.40;;;;;;5031805;28;20028;-60
2022/09/04 11:03:02;;;;;;;1.25;1.15;;;20.50;52.10;;;;;;5031432;28;20563;-59
2022/09/04 11:06:01;;;;;;;1.00;1.00;;;20.50;52.00;;;;;;5006430;28;20037;-59
2022/09/04 11:08:35;;;;;;;1.13;1.02;;;20.50;51.80;;;;;;5028814;28;20072;-58
2022/09/04 11:11:27;;;;;;;1.35;1.25;;;20.60;51.90;;;;;;5030826;28;20112;-59
2022/09/04 11:13:55;;;;;;;1.27;1.17;;;20.60;51.60;;;;;;5026153;28;20389;-59
2022/09/04 11:17:01;;;;;;;1.30;1.20;;;20.70;51.60;;;;;;5028860;28;20034;-59
2022/09/04 11:19:57;;;;;;;1.20;1.10;;;20.70;51.40;;;;;;5032086;28;20026;-59
2022/09/04 11:22:45;;;;;;;1.17;1.17;;;20.70;51.90;;;;;;5024793;28;20018;-59
2022/09/04 11:25:41;;;;;;;1.35;1.27;;;20.70;51.30;;;;;;5027786;28;20031;-60
2022/09/04 11:28:49;;;;;;;1.42;1.02;;;20.70;51.10;;;;;;5030804;28;20525;-59
2022/09/04 11:31:26;;;;;;;0.70;0.70;;;20.70;51.00;;;;;;5032462;28;20104;-58
2022/09/04 11:34:25;;;;;;;1.10;1.00;;;20.70;51.10;;;;;;5025065;28;20037;-59
2022/09/04 11:37:09;;;;;;;1.50;1.30;;;20.70;50.70;;;;;;5026724;28;20462;-58
2022/09/04 11:39:53;;;;;;;1.10;1.00;;;20.80;50.80;;;;;;5043561;28;20056;-58
2022/09/04 11:42:48;;;;;;;1.00;0.95;;;20.80;50.80;;;;;;5030061;23;20066;-89
2022/09/04 11:45:40;;;;;;;1.20;1.10;;;20.90;50.80;;;;;;4963936;28;20035;-89
2022/09/04 11:48:11;;;;;;;;;;;21.00;50.60;;;;;;4967844;28;20039;-89
2022/09/04 11:51:01;;;;;;;1.25;1.15;;;21.00;50.10;;;;;;4970108;28;19964;-89
2022/09/04 11:54:03;;;;;;;1.40;1.30;;;21.00;50.20;;;;;;4967577;28;20062;-89
2022/09/04 11:56:43;;;;;;;1.20;1.20;;;21.00;50.20;;;;;;4969205;28;20065;-91
2022/09/04 11:59:36;;;;;;;1.85;1.42;;;21.00;50.00;;;;;;4973463;28;20045;-89
2022/09/04 12:02:43;;;;;;;1.02;1.00;;;21.00;50.00;;;;;;4969467;28;20034;-89
2022/09/04 12:05:44;;;;;;;0.82;0.82;;;20.90;50.10;;;;;;4951497;28;20449;-89
2022/09/04 12:08:39;;;;;;;1.30;1.20;;;20.90;50.00;;;;;;5041741;23;20052;-59
2022/09/04 12:11:23;;;;;;;1.30;1.20;;;20.90;49.90;;;;;;5012959;28;20033;-60
2022/09/04 12:14:22;;;;;;;2.25;1.33;;;21.00;49.90;;;;;;5040831;28;20025;-59
2022/09/04 12:16:57;;;;;;;0.93;0.93;;;21.00;49.70;;;;;;5043728;28;20086;-58
2022/09/04 12:19:49;;;;;;;1.17;0.90;;;21.00;49.60;;;;;;5012572;28;20078;-60
2022/09/04 12:22:29;;;;;;;1.00;1.00;;;21.00;49.50;;;;;;5011264;28;20025;-55
2022/09/04 12:25:07;;;;;;;1.40;1.00;;;21.00;49.50;;;;;;5014696;28;20495;-59
2022/09/04 12:28:04;;;;;;;1.42;1.33;;;21.00;49.60;;;;;;5012928;28;20071;-58
2022/09/04 12:30:57;;;;;;;1.02;0.93;;;21.00;49.40;;;;;;5020811;28;20056;-58
2022/09/04 12:33:32;;;;;;;1.05;0.98;;;21.10;49.60;;;;;;5019071;28;20171;-57
2022/09/04 12:36:48;;;;;;;1.15;0.98;;;21.10;49.50;;;;;;5027027;28;20273;-57
2022/09/04 12:39:32;;;;;;;0.90;0.90;;;21.10;49.30;;;;;;5039600;28;20075;-57
2022/09/04 12:42:11;;;;;;;1.27;1.13;;;21.10;49.20;;;;;;5040771;28;20033;-57
2022/09/04 12:45:20;;;;;;;1.38;1.05;;;21.20;49.30;;;;;;5035438;28;20025;-55
2022/09/04 12:47:50;;;;;;;1.00;1.00;;;21.20;49.00;;;;;;5036403;28;20508;-56
2022/09/04 12:50:44;;;;;;;1.03;0.97;;;21.30;49.10;;;;;;5041112;28;20140;-56
2022/09/04 12:53:31;;;;;;;0.90;0.90;;;21.30;49.00;;;;;;5046094;28;20112;-56
2022/09/04 12:56:34;;;;;;;1.20;1.10;;;21.30;49.00;;;;;;5049800;28;20028;-56
2022/09/04 12:59:06;;;;;;;1.02;0.98;;;21.30;49.00;;;;;;5048170;28;20124;-56
2022/09/04 13:02:01;;;;;;;1.40;1.30;;;21.20;49.00;;;;;;5049915;28;20108;-56
2022/09/04 13:04:48;;;;;;;1.23;1.10;;;21.20;49.00;;;;;;5036429;28;20060;-57
2022/09/04 13:07:44;;;;;;;0.95;0.95;;;21.20;49.10;;;;;;5041414;28;20435;-55
2022/09/04 13:10:16;;;;;;;1.58;1.48;;;21.20;48.90;;;;;;5038251;28;20039;-58
2022/09/04 13:12:46;;;;;;;1.08;1.08;;;21.20;48.70;;;;;;5039065;28;20040;-55
2022/09/04 13:15:23;;;;;;;1.43;1.33;;;21.20;48.50;;;;;;5037517;28;20572;-57
2022/09/04 13:18:13;;;;;;;1.50;1.40;;;21.10;48.30;;;;;;5036701;28;20060;-55
2022/09/04 13:20:39;;;;;;;1.02;1.02;;;21.10;48.30;;;;;;5040842;28;20025;-55
2022/09/04 13:23:10;;;;;;;1.40;1.30;;;21.10;48.50;;;;;;5040796;28;20370;-56
2022/09/04 13:25:58;;;;;;;1.70;1.60;;;21.10;48.50;;;;;;5040716;28;20040;-54
2022/09/04 13:28:44;;;;;;;1.67;1.23;;;21.10;48.60;;;;;;5039017;28;20068;-55
2022/09/04 13:31:18;;;;;;;1.33;1.23;;;21.10;48.50;;;;;;5039676;28;20025;-58
2022/09/04 13:34:14;;;;;;;1.15;1.08;;;21.10;48.60;;;;;;5039516;28;20032;-57
2022/09/04 13:37:05;;;;;;;0.80;0.70;;;21.00;48.50;;;;;;5022552;28;20032;-57
2022/09/04 13:39:40;;;;;;;1.40;1.30;;;21.00;48.60;;;;;;5040383;28;20025;-56
2022/09/04 13:42:25;;;;;;;1.40;1.25;;;20.90;48.80;;;;;;5042818;28;20033;-58
2022/09/04 13:45:02;;;;;;;0.85;0.85;;;20.90;48.60;;;;;;5039639;28;20029;-55
2022/09/04 13:47:37;;;;;;;0.88;0.88;;;20.80;48.70;;;;;;5037681;28;20483;-56
2022/09/04 13:50:22;;;;;;;1.25;1.05;;;20.90;48.70;;;;;;5035686;28;20871;-57
2022/09/04 13:53:16;;;;;;;1.50;1.40;;;20.80;48.70;;;;;;5043515;28;20025;-57
2022/09/04 13:55:53;;;;;;;1.52;1.30;;;20.80;48.80;;;;;;5034805;28;20547;-55
2022/09/04 13:58:22;;;;;;;1.08;1.05;;;20.80;48.80;;;;;;5040703;28;20036;-56
2022/09/04 14:00:59;;;;;;;1.38;1.27;;;20.80;48.80;;;;;;5040735;28;20413;-56
2022/09/04 14:03:44;;;;;;;0.90;0.90;;;20.90;48.90;;;;;;5043525;28;20032;-54
2022/09/04 14:06:13;;;;;;;0.90;0.90;;;20.90;48.90;;;;;;5039919;28;20113;-54
2022/09/04 14:08:42;;;;;;;0.95;0.85;;;21.00;48.90;;;;;;5036019;28;20045;-56
2022/09/04 14:11:33;;;;;;;1.55;1.45;;;21.00;49.00;;;;;;5038002;28;20038;-56
2022/09/04 14:14:02;;;;;;;1.00;0.95;;;21.00;48.80;;;;;;5043806;28;20017;-54
2022/09/04 14:16:35;;;;;;;2.40;1.05;;;21.00;48.80;;;;;;5041410;28;20037;-55